createdAt,value
2022-09-22T00:00:15.868Z,0.00
2022-09-22T00:01:15.842Z,0.00
2022-09-22T00:02:15.844Z,0.00
2022-09-22T00:03:15.781Z,0.00
2022-09-22T00:04:15.757Z,0.00
2022-09-22T00:05:15.732Z,0.00
2022-09-22T00:06:15.736Z,0.00
2022-09-22T00:07:15.692Z,0.00
2022-09-22T00:08:15.670Z,0.00
2022-09-22T00:09:15.642Z,0.00
2022-09-22T00:10:15.645Z,0.00
2022-09-22T00:11:15.602Z,0.00
2022-09-22T00:12:15.602Z,0.00
2022-09-22T00:13:15.561Z,0.00
2022-09-22T00:14:15.540Z,0.00
2022-09-22T00:15:15.510Z,0.00
2022-09-22T00:16:15.604Z,0.00
2022-09-22T00:17:15.493Z,0.00
2022-09-22T00:18:15.452Z,0.00
2022-09-22T00:19:15.428Z,0.00
2022-09-22T00:20:15.401Z,0.00
2022-09-22T00:21:15.388Z,0.00
2022-09-22T00:22:15.384Z,0.00
2022-09-22T00:23:15.337Z,0.00
2022-09-22T00:24:15.314Z,0.00
2022-09-22T00:25:15.291Z,0.00
2022-09-22T00:26:15.269Z,0.00
2022-09-22T00:27:15.248Z,0.00
2022-09-22T00:28:15.243Z,0.00
2022-09-22T00:29:15.204Z,0.00
2022-09-22T00:30:15.183Z,0.00
2022-09-22T00:31:15.231Z,0.00
2022-09-22T00:32:15.166Z,0.00
2022-09-22T00:33:15.126Z,0.00
2022-09-22T00:34:15.097Z,0.00
2022-09-22T00:35:15.082Z,0.00
2022-09-22T00:36:15.054Z,0.00
2022-09-22T00:37:15.057Z,0.00
2022-09-22T00:38:15.011Z,0.00
2022-09-22T00:39:14.991Z,0.00
2022-09-22T00:40:15.009Z,0.00
2022-09-22T00:41:14.939Z,0.00
2022-09-22T00:42:14.936Z,0.00
2022-09-22T00:43:14.895Z,0.00
2022-09-22T00:44:14.866Z,0.00
2022-09-22T00:45:14.853Z,0.00
2022-09-22T00:46:14.871Z,0.00
2022-09-22T00:47:14.831Z,0.00
2022-09-22T00:48:14.785Z,0.00
2022-09-22T00:49:14.778Z,0.00
2022-09-22T00:50:14.760Z,0.00
2022-09-22T00:51:14.714Z,0.00
2022-09-22T00:52:14.693Z,0.00
2022-09-22T00:53:14.674Z,0.00
2022-09-22T00:54:14.652Z,0.00
2022-09-22T00:55:14.644Z,0.00
2022-09-22T00:56:14.613Z,0.00
2022-09-22T00:57:14.587Z,0.00
2022-09-22T00:58:14.571Z,0.00
2022-09-22T00:59:14.546Z,0.00
2022-09-22T01:00:14.540Z,0.00
2022-09-22T01:01:14.574Z,0.00
2022-09-22T01:02:14.503Z,0.00
2022-09-22T01:03:14.457Z,0.00
2022-09-22T01:04:14.446Z,0.00
2022-09-22T01:05:14.412Z,0.00
2022-09-22T01:06:14.420Z,0.00
2022-09-22T01:07:14.363Z,0.00
2022-09-22T01:08:14.341Z,0.00
2022-09-22T01:09:14.315Z,0.00
2022-09-22T01:10:14.300Z,0.00
2022-09-22T01:11:14.291Z,0.00
2022-09-22T01:12:14.254Z,0.00
2022-09-22T01:13:14.229Z,0.00
2022-09-22T01:14:14.208Z,0.00
2022-09-22T01:15:14.187Z,0.00
2022-09-22T01:16:14.211Z,0.00
2022-09-22T01:17:14.161Z,0.00
2022-09-22T01:18:14.206Z,0.00
2022-09-22T01:19:14.098Z,0.00
2022-09-22T01:20:14.073Z,0.00
2022-09-22T01:21:14.055Z,0.00
2022-09-22T01:22:14.056Z,0.00
2022-09-22T01:23:14.010Z,0.00
2022-09-22T01:24:14.002Z,0.00
2022-09-22T01:25:13.968Z,0.00
2022-09-22T01:26:13.939Z,0.00
2022-09-22T01:27:13.919Z,0.00
2022-09-22T01:28:13.911Z,0.00
2022-09-22T01:29:13.874Z,0.00
2022-09-22T01:30:13.853Z,0.00
2022-09-22T01:31:13.869Z,0.00
2022-09-22T01:32:13.805Z,0.00
2022-09-22T01:33:13.807Z,0.00
2022-09-22T01:34:13.767Z,0.00
2022-09-22T01:35:13.775Z,0.00
2022-09-22T01:36:13.746Z,0.00
2022-09-22T01:37:13.706Z,0.00
2022-09-22T01:38:13.686Z,0.00
2022-09-22T01:39:13.661Z,0.00
2022-09-22T01:40:13.693Z,0.00
2022-09-22T01:41:13.637Z,0.00
2022-09-22T01:42:13.587Z,0.00
2022-09-22T01:43:13.570Z,0.00
2022-09-22T01:44:13.543Z,0.00
2022-09-22T01:45:13.527Z,0.00
2022-09-22T01:46:13.553Z,0.00
2022-09-22T01:47:13.481Z,0.00
2022-09-22T01:48:13.465Z,0.00
2022-09-22T01:49:13.431Z,0.00
2022-09-22T01:50:13.412Z,0.00
2022-09-22T01:51:13.408Z,0.00
2022-09-22T01:52:13.383Z,0.00
2022-09-22T01:53:13.337Z,0.00
2022-09-22T01:54:13.327Z,0.00
2022-09-22T01:55:13.296Z,0.00
2022-09-22T01:56:13.274Z,0.00
2022-09-22T01:57:13.264Z,0.00
2022-09-22T01:58:13.245Z,0.00
2022-09-22T01:59:13.206Z,0.00
2022-09-22T02:00:13.183Z,0.00
2022-09-22T02:01:14.791Z,0.00
2022-09-22T02:02:13.269Z,0.00
2022-09-22T02:03:13.144Z,0.00
2022-09-22T02:04:13.100Z,0.00
2022-09-22T02:05:13.067Z,0.00
2022-09-22T02:06:13.051Z,0.00
2022-09-22T02:07:13.026Z,0.00
2022-09-22T02:08:13.010Z,0.00
2022-09-22T02:09:13.001Z,0.00
2022-09-22T02:10:12.961Z,0.00
2022-09-22T02:11:12.939Z,0.00
2022-09-22T02:12:12.925Z,0.00
2022-09-22T02:13:12.990Z,0.00
2022-09-22T02:14:12.873Z,0.00
2022-09-22T02:15:12.850Z,0.00
2022-09-22T02:16:12.872Z,0.00
2022-09-22T02:17:12.845Z,0.00
2022-09-22T02:18:12.857Z,0.00
2022-09-22T02:19:13.790Z,0.00
2022-09-22T02:20:12.739Z,0.00
2022-09-22T02:21:12.745Z,0.00
2022-09-22T02:22:12.701Z,0.00
2022-09-22T02:23:12.762Z,0.00
2022-09-22T02:24:12.655Z,0.00
2022-09-22T02:25:12.656Z,0.00
2022-09-22T02:26:12.609Z,0.00
2022-09-22T02:27:12.583Z,0.00
2022-09-22T02:28:12.559Z,0.00
2022-09-22T02:29:12.539Z,0.00
2022-09-22T02:30:12.529Z,0.00
2022-09-22T02:31:20.745Z,0.00
2022-09-22T02:32:12.519Z,0.00
2022-09-22T02:33:12.555Z,0.00
2022-09-22T02:34:12.427Z,0.00
2022-09-22T02:35:12.428Z,0.00
2022-09-22T02:36:12.380Z,0.00
2022-09-22T02:37:12.363Z,0.00
2022-09-22T02:38:12.335Z,0.00
2022-09-22T02:39:12.316Z,0.00
2022-09-22T02:40:12.385Z,0.00
2022-09-22T02:41:12.270Z,0.00
2022-09-22T02:42:12.284Z,0.00
2022-09-22T02:43:12.229Z,0.00
2022-09-22T02:44:12.210Z,0.00
2022-09-22T02:45:12.196Z,0.00
2022-09-22T02:46:12.210Z,0.00
2022-09-22T02:47:12.146Z,0.00
2022-09-22T02:48:12.141Z,0.00
2022-09-22T02:49:12.098Z,0.00
2022-09-22T02:50:12.082Z,0.00
2022-09-22T02:51:12.051Z,0.00
2022-09-22T02:52:12.031Z,0.00
2022-09-22T02:53:12.006Z,0.00
2022-09-22T02:54:12.003Z,0.00
2022-09-22T02:55:11.961Z,0.00
2022-09-22T02:56:11.953Z,0.00
2022-09-22T02:57:11.911Z,0.00
2022-09-22T02:58:11.914Z,0.00
2022-09-22T02:59:12.015Z,0.00
2022-09-22T03:00:11.850Z,0.00
2022-09-22T03:01:11.841Z,0.00
2022-09-22T03:02:11.803Z,0.00
2022-09-22T03:03:11.801Z,0.00
2022-09-22T03:04:11.772Z,0.00
2022-09-22T03:05:11.828Z,0.00
2022-09-22T03:06:11.720Z,0.00
2022-09-22T03:07:11.695Z,0.00
2022-09-22T03:08:11.671Z,0.00
2022-09-22T03:09:11.663Z,0.00
2022-09-22T03:10:11.631Z,0.00
2022-09-22T03:11:11.603Z,0.00
2022-09-22T03:12:11.580Z,0.00
2022-09-22T03:13:18.671Z,0.00
2022-09-22T03:14:11.536Z,0.00
2022-09-22T03:15:11.533Z,0.00
2022-09-22T03:16:11.554Z,0.00
2022-09-22T03:17:11.468Z,0.00
2022-09-22T03:18:11.449Z,0.00
2022-09-22T03:19:11.427Z,0.00
2022-09-22T03:20:11.407Z,0.00
2022-09-22T03:21:11.406Z,0.00
2022-09-22T03:22:11.364Z,0.00
2022-09-22T03:23:11.347Z,0.00
2022-09-22T03:24:11.318Z,0.00
2022-09-22T03:25:11.299Z,0.00
2022-09-22T03:26:11.296Z,0.00
2022-09-22T03:27:11.265Z,0.00
2022-09-22T03:28:11.235Z,0.00
2022-09-22T03:29:11.232Z,0.00
2022-09-22T03:30:11.187Z,0.00
2022-09-22T03:31:11.212Z,0.00
2022-09-22T03:32:11.146Z,0.00
2022-09-22T03:33:11.139Z,0.00
2022-09-22T03:34:11.101Z,0.00
2022-09-22T03:35:11.089Z,0.00
2022-09-22T03:36:11.056Z,0.00
2022-09-22T03:37:11.053Z,0.00
2022-09-22T03:38:11.009Z,0.00
2022-09-22T03:39:11.014Z,0.00
2022-09-22T03:40:11.033Z,0.00
2022-09-22T03:41:10.936Z,0.00
2022-09-22T03:42:10.949Z,0.00
2022-09-22T03:43:15.932Z,0.00
2022-09-22T03:44:10.869Z,0.00
2022-09-22T03:45:10.849Z,0.00
2022-09-22T03:46:10.881Z,0.00
2022-09-22T03:47:10.818Z,0.00
2022-09-22T03:48:10.807Z,0.00
2022-09-22T03:49:10.760Z,0.00
2022-09-22T03:50:10.737Z,0.00
2022-09-22T03:51:10.715Z,0.00
2022-09-22T03:52:10.689Z,0.00
2022-09-22T03:53:10.675Z,0.00
2022-09-22T03:54:10.668Z,0.00
2022-09-22T03:55:10.625Z,0.00
2022-09-22T03:56:10.602Z,0.00
2022-09-22T03:57:10.585Z,0.00
2022-09-22T03:58:10.568Z,0.00
2022-09-22T03:59:10.616Z,0.00
2022-09-22T04:00:10.511Z,0.00
2022-09-22T04:01:10.511Z,0.00
2022-09-22T04:02:10.507Z,0.00
2022-09-22T04:03:10.471Z,0.00
2022-09-22T04:04:10.443Z,0.00
2022-09-22T04:05:10.414Z,0.00
2022-09-22T04:06:10.383Z,0.00
2022-09-22T04:07:10.366Z,0.00
2022-09-22T04:08:10.357Z,0.00
2022-09-22T04:09:10.341Z,0.00
2022-09-22T04:10:10.293Z,0.00
2022-09-22T04:11:10.282Z,0.00
2022-09-22T04:12:10.252Z,0.00
2022-09-22T04:13:10.229Z,0.00
2022-09-22T04:14:10.203Z,0.00
2022-09-22T04:15:10.275Z,0.00
2022-09-22T04:16:10.158Z,0.00
2022-09-22T04:17:10.135Z,0.00
2022-09-22T04:18:10.116Z,0.00
2022-09-22T04:19:10.100Z,0.00
2022-09-22T04:20:10.091Z,0.00
2022-09-22T04:21:10.046Z,0.00
2022-09-22T04:22:10.023Z,0.00
2022-09-22T04:23:10.001Z,0.00
2022-09-22T04:24:09.982Z,0.00
2022-09-22T04:25:09.972Z,0.00
2022-09-22T04:26:09.940Z,0.00
2022-09-22T04:27:22.823Z,0.00
2022-09-22T04:28:09.897Z,0.00
2022-09-22T04:29:09.905Z,0.00
2022-09-22T04:30:09.850Z,0.00
2022-09-22T04:31:09.872Z,0.00
2022-09-22T04:32:09.829Z,0.00
2022-09-22T04:33:09.799Z,0.00
2022-09-22T04:34:09.765Z,0.00
2022-09-22T04:35:09.755Z,0.00
2022-09-22T04:36:09.742Z,0.00
2022-09-22T04:37:09.710Z,0.00
2022-09-22T04:38:09.673Z,0.00
2022-09-22T04:39:09.651Z,0.00
2022-09-22T04:40:09.663Z,0.00
2022-09-22T04:41:09.602Z,0.00
2022-09-22T04:42:09.599Z,0.00
2022-09-22T04:43:09.554Z,0.00
2022-09-22T04:44:09.533Z,0.00
2022-09-22T04:45:09.509Z,0.00
2022-09-22T04:46:09.590Z,0.00
2022-09-22T04:47:09.466Z,0.00
2022-09-22T04:48:09.447Z,0.00
2022-09-22T04:49:09.428Z,0.00
2022-09-22T04:50:09.400Z,0.00
2022-09-22T04:51:09.375Z,0.00
2022-09-22T04:52:09.368Z,0.00
2022-09-22T04:53:09.351Z,0.00
2022-09-22T04:54:09.302Z,0.00
2022-09-22T04:55:09.288Z,0.00
2022-09-22T04:56:09.276Z,0.00
2022-09-22T04:57:09.265Z,0.00
2022-09-22T04:58:09.218Z,0.00
2022-09-22T04:59:09.216Z,0.00
2022-09-22T05:00:09.171Z,0.00
2022-09-22T05:01:09.179Z,0.00
2022-09-22T05:02:09.150Z,0.00
2022-09-22T05:03:09.193Z,0.00
2022-09-22T05:04:09.101Z,0.00
2022-09-22T05:05:09.064Z,0.00
2022-09-22T05:06:09.035Z,0.00
2022-09-22T05:07:09.016Z,0.00
2022-09-22T05:08:08.994Z,0.00
2022-09-22T05:09:08.980Z,0.00
2022-09-22T05:10:08.971Z,0.00
2022-09-22T05:11:08.938Z,0.00
2022-09-22T05:12:08.908Z,0.00
2022-09-22T05:13:08.890Z,0.00
2022-09-22T05:14:08.920Z,0.00
2022-09-22T05:15:08.854Z,0.00
2022-09-22T05:16:08.861Z,0.00
2022-09-22T05:17:08.803Z,0.00
2022-09-22T05:18:08.771Z,0.00
2022-09-22T05:19:08.748Z,0.00
2022-09-22T05:20:08.752Z,0.00
2022-09-22T05:21:08.723Z,0.00
2022-09-22T05:22:08.686Z,0.00
2022-09-22T05:23:08.659Z,0.00
2022-09-22T05:24:08.640Z,0.00
2022-09-22T05:25:08.662Z,0.00
2022-09-22T05:26:08.588Z,0.00
2022-09-22T05:27:08.565Z,0.00
2022-09-22T05:28:08.537Z,0.00
2022-09-22T05:29:08.580Z,0.00
2022-09-22T05:30:08.497Z,0.00
2022-09-22T05:31:08.500Z,0.00
2022-09-22T05:32:08.539Z,0.00
2022-09-22T05:33:08.436Z,0.00
2022-09-22T05:34:08.411Z,0.00
2022-09-22T05:35:08.403Z,0.00
2022-09-22T05:36:08.389Z,0.00
2022-09-22T05:37:08.336Z,0.00
2022-09-22T05:38:08.344Z,0.00
2022-09-22T05:39:08.300Z,5.63
2022-09-22T05:40:08.297Z,5.63
2022-09-22T05:41:08.263Z,5.63
2022-09-22T05:42:11.031Z,5.63
2022-09-22T05:43:08.212Z,5.63
2022-09-22T05:44:08.260Z,5.63
2022-09-22T05:45:08.158Z,5.63
2022-09-22T05:46:08.163Z,5.63
2022-09-22T05:47:08.131Z,5.63
2022-09-22T05:48:08.092Z,5.63
2022-09-22T05:49:08.071Z,5.63
2022-09-22T05:50:08.059Z,5.63
2022-09-22T05:51:08.036Z,5.63
2022-09-22T05:52:08.002Z,5.63
2022-09-22T05:53:07.984Z,5.63
2022-09-22T05:54:07.964Z,5.63
2022-09-22T05:55:07.941Z,5.63
2022-09-22T05:56:07.939Z,5.63
2022-09-22T05:57:07.893Z,5.63
2022-09-22T05:58:07.874Z,5.63
2022-09-22T05:59:07.985Z,5.63
2022-09-22T06:00:07.822Z,5.63
2022-09-22T06:01:07.836Z,5.63
2022-09-22T06:02:24.818Z,5.63
2022-09-22T06:03:07.860Z,5.63
2022-09-22T06:04:07.756Z,5.63
2022-09-22T06:05:07.720Z,5.63
2022-09-22T06:06:07.688Z,11.25
2022-09-22T06:07:07.664Z,11.25
2022-09-22T06:08:07.641Z,11.25
2022-09-22T06:09:07.623Z,11.25
2022-09-22T06:10:07.615Z,11.25
2022-09-22T06:11:07.597Z,11.25
2022-09-22T06:12:07.550Z,11.25
2022-09-22T06:13:07.531Z,11.25
2022-09-22T06:14:07.552Z,11.25
2022-09-22T06:15:07.489Z,11.25
2022-09-22T06:16:07.541Z,11.25
2022-09-22T06:17:07.460Z,11.25
2022-09-22T06:18:07.576Z,11.25
2022-09-22T06:19:07.399Z,11.25
2022-09-22T06:20:07.381Z,11.25
2022-09-22T06:21:07.356Z,11.25
2022-09-22T06:22:07.346Z,11.25
2022-09-22T06:23:07.331Z,11.25
2022-09-22T06:24:07.298Z,11.25
2022-09-22T06:25:07.291Z,11.25
2022-09-22T06:26:07.246Z,11.25
2022-09-22T06:27:07.225Z,11.25
2022-09-22T06:28:07.198Z,11.25
2022-09-22T06:29:07.219Z,11.25
2022-09-22T06:30:07.177Z,11.25
2022-09-22T06:31:07.130Z,11.25
2022-09-22T06:32:07.187Z,11.25
2022-09-22T06:33:07.090Z,11.25
2022-09-22T06:34:07.793Z,11.25
2022-09-22T06:35:07.079Z,11.25
2022-09-22T06:36:07.019Z,11.25
2022-09-22T06:37:07.031Z,11.25
2022-09-22T06:38:06.979Z,11.25
2022-09-22T06:39:07.122Z,11.25
2022-09-22T06:40:06.968Z,11.25
2022-09-22T06:41:06.916Z,11.25
2022-09-22T06:42:06.885Z,11.25
2022-09-22T06:43:06.862Z,11.25
2022-09-22T06:44:06.860Z,11.25
2022-09-22T06:45:06.818Z,11.25
2022-09-22T06:46:06.823Z,11.25
2022-09-22T06:47:06.783Z,11.25
2022-09-22T06:48:10.155Z,11.25
2022-09-22T06:49:06.742Z,11.25
2022-09-22T06:50:06.724Z,11.25
2022-09-22T06:51:06.689Z,11.25
2022-09-22T06:52:06.665Z,11.25
2022-09-22T06:53:06.650Z,11.25
2022-09-22T06:54:06.771Z,16.88
2022-09-22T06:55:06.599Z,16.88
2022-09-22T06:56:06.592Z,16.88
2022-09-22T06:57:06.579Z,16.88
2022-09-22T06:58:06.544Z,16.88
2022-09-22T06:59:10.312Z,16.88
2022-09-22T07:00:06.489Z,16.88
2022-09-22T07:01:09.827Z,16.88
2022-09-22T07:02:06.596Z,16.88
2022-09-22T07:03:06.421Z,16.88
2022-09-22T07:04:06.403Z,16.88
2022-09-22T07:05:06.390Z,16.88
2022-09-22T07:06:06.358Z,16.88
2022-09-22T07:07:06.351Z,16.88
2022-09-22T07:08:06.326Z,16.88
2022-09-22T07:09:06.386Z,16.88
2022-09-22T07:10:06.278Z,16.88
2022-09-22T07:11:06.252Z,16.88
2022-09-22T07:12:06.256Z,16.88
2022-09-22T07:13:06.229Z,16.88
2022-09-22T07:14:06.199Z,16.88
2022-09-22T07:15:06.164Z,16.88
2022-09-22T07:16:06.209Z,16.88
2022-09-22T07:17:06.112Z,16.88
2022-09-22T07:18:06.104Z,16.88
2022-09-22T07:19:06.081Z,16.88
2022-09-22T07:20:06.079Z,16.88
2022-09-22T07:21:06.020Z,16.88
2022-09-22T07:22:06.006Z,16.88
2022-09-22T07:23:05.983Z,16.88
2022-09-22T07:24:06.077Z,16.88
2022-09-22T07:25:05.937Z,16.88
2022-09-22T07:26:05.919Z,16.88
2022-09-22T07:27:05.895Z,16.88
2022-09-22T07:28:05.873Z,16.88
2022-09-22T07:29:05.873Z,16.88
2022-09-22T07:30:05.830Z,16.88
2022-09-22T07:31:05.832Z,16.88
2022-09-22T07:32:05.875Z,16.88
2022-09-22T07:33:05.759Z,16.88
2022-09-22T07:34:05.747Z,16.88
2022-09-22T07:35:05.715Z,16.88
2022-09-22T07:36:05.705Z,16.88
2022-09-22T07:37:05.707Z,16.88
2022-09-22T07:38:05.655Z,16.88
2022-09-22T07:39:05.738Z,22.50
2022-09-22T07:40:05.673Z,22.50
2022-09-22T07:41:05.590Z,22.50
2022-09-22T07:42:05.590Z,22.50
2022-09-22T07:43:05.556Z,22.50
2022-09-22T07:44:05.534Z,22.50
2022-09-22T07:45:05.506Z,22.50
2022-09-22T07:46:05.489Z,22.50
2022-09-22T07:47:05.482Z,22.50
2022-09-22T07:48:05.447Z,22.50
2022-09-22T07:49:05.412Z,22.50
2022-09-22T07:50:05.400Z,22.50
2022-09-22T07:51:05.385Z,22.50
2022-09-22T07:52:05.382Z,22.50
2022-09-22T07:53:05.330Z,22.50
2022-09-22T07:54:05.338Z,22.50
2022-09-22T07:55:05.283Z,22.50
2022-09-22T07:56:05.264Z,22.50
2022-09-22T07:57:05.242Z,22.50
2022-09-22T07:58:05.250Z,22.50
2022-09-22T07:59:05.416Z,22.50
2022-09-22T08:00:05.184Z,22.50
2022-09-22T08:01:05.274Z,22.50
2022-09-22T08:02:05.193Z,22.50
2022-09-22T08:03:05.128Z,22.50
2022-09-22T08:04:05.095Z,22.50
2022-09-22T08:05:05.076Z,22.50
2022-09-22T08:06:06.193Z,22.50
2022-09-22T08:07:05.062Z,22.50
2022-09-22T08:08:05.028Z,22.50
2022-09-22T08:09:05.112Z,22.50
2022-09-22T08:10:04.976Z,22.50
2022-09-22T08:11:04.949Z,22.50
2022-09-22T08:12:04.929Z,22.50
2022-09-22T08:13:04.928Z,22.50
2022-09-22T08:14:04.913Z,22.50
2022-09-22T08:15:04.891Z,22.50
2022-09-22T08:16:04.879Z,22.50
2022-09-22T08:17:04.829Z,22.50
2022-09-22T08:18:04.801Z,22.50
2022-09-22T08:19:04.776Z,22.50
2022-09-22T08:20:04.774Z,22.50
2022-09-22T08:21:04.733Z,22.50
2022-09-22T08:22:04.714Z,28.13
2022-09-22T08:23:04.699Z,28.13
2022-09-22T08:24:05.700Z,28.13
2022-09-22T08:25:04.674Z,28.13
2022-09-22T08:26:04.630Z,28.13
2022-09-22T08:27:04.610Z,28.13
2022-09-22T08:28:04.585Z,28.13
2022-09-22T08:29:04.572Z,28.13
2022-09-22T08:30:04.561Z,28.13
2022-09-22T08:31:04.634Z,28.13
2022-09-22T08:32:04.504Z,28.13
2022-09-22T08:33:04.510Z,28.13
2022-09-22T08:34:04.459Z,28.13
2022-09-22T08:35:04.469Z,28.13
2022-09-22T08:36:04.449Z,28.13
2022-09-22T08:37:04.415Z,28.13
2022-09-22T08:38:06.270Z,28.13
2022-09-22T08:39:04.371Z,33.75
2022-09-22T08:40:04.409Z,33.75
2022-09-22T08:41:04.360Z,33.75
2022-09-22T08:42:04.299Z,33.75
2022-09-22T08:43:04.278Z,33.75
2022-09-22T08:44:04.267Z,33.75
2022-09-22T08:45:04.257Z,39.38
2022-09-22T08:46:04.344Z,39.38
2022-09-22T08:47:04.211Z,39.38
2022-09-22T08:48:04.179Z,39.38
2022-09-22T08:49:04.162Z,39.38
2022-09-22T08:50:04.140Z,39.38
2022-09-22T08:51:04.122Z,39.38
2022-09-22T08:52:04.124Z,39.38
2022-09-22T08:53:04.080Z,56.25
2022-09-22T08:54:04.070Z,56.25
2022-09-22T08:55:04.047Z,50.63
2022-09-22T08:56:04.025Z,56.25
2022-09-22T08:57:04.022Z,56.25
2022-09-22T08:58:03.989Z,78.75
2022-09-22T08:59:03.969Z,84.38
2022-09-22T09:00:03.942Z,106.88
2022-09-22T09:01:03.922Z,202.50
2022-09-22T09:02:03.997Z,191.25
2022-09-22T09:03:03.929Z,168.75
2022-09-22T09:04:03.858Z,185.63
2022-09-22T09:05:03.845Z,163.13
2022-09-22T09:06:03.813Z,118.13
2022-09-22T09:07:03.797Z,101.25
2022-09-22T09:08:03.798Z,78.75
2022-09-22T09:09:05.225Z,73.13
2022-09-22T09:10:03.740Z,67.50
2022-09-22T09:11:03.718Z,67.50
2022-09-22T09:12:03.702Z,84.38
2022-09-22T09:13:03.681Z,106.88
2022-09-22T09:14:03.679Z,146.25
2022-09-22T09:15:03.645Z,146.25
2022-09-22T09:16:03.645Z,112.50
2022-09-22T09:17:03.597Z,146.25
2022-09-22T09:18:03.580Z,202.50
2022-09-22T09:19:03.559Z,191.25
2022-09-22T09:20:03.563Z,174.38
2022-09-22T09:21:03.520Z,202.50
2022-09-22T09:22:03.498Z,393.75
2022-09-22T09:23:03.483Z,466.88
2022-09-22T09:26:03.447Z,860.63
2022-09-22T09:27:03.409Z,905.63
2022-09-22T09:28:03.388Z,826.88
2022-09-22T09:29:04.040Z,641.25
2022-09-22T09:30:03.357Z,568.13
2022-09-22T09:31:03.372Z,562.50
2022-09-22T09:32:03.331Z,545.63
2022-09-22T09:33:03.296Z,540.00
2022-09-22T09:34:03.294Z,556.88
2022-09-22T09:36:03.385Z,720.00
2022-09-22T09:37:03.262Z,585.00
2022-09-22T09:38:03.219Z,433.13
2022-09-22T09:39:03.199Z,416.25
2022-09-22T09:40:03.235Z,433.13
2022-09-22T09:41:03.168Z,455.63
2022-09-22T09:42:03.154Z,506.25
2022-09-22T09:43:03.469Z,804.38
2022-09-22T09:44:03.133Z,1046.25
2022-09-22T09:45:03.108Z,1153.13
2022-09-22T09:46:03.157Z,1153.13
2022-09-22T09:47:03.105Z,1158.75
2022-09-22T09:48:03.066Z,1192.50
2022-09-22T09:49:03.046Z,1231.88
2022-09-22T09:50:03.022Z,1215.00
2022-09-22T09:51:03.012Z,1226.25
2022-09-22T09:52:02.993Z,1237.50
2022-09-22T09:53:02.997Z,1260.00
2022-09-22T09:54:02.995Z,1282.50
2022-09-22T09:55:02.947Z,1254.38
2022-09-22T09:57:45.083Z,1260.00
2022-09-22T09:58:45.045Z,995.63
2022-09-22T09:59:45.039Z,1153.13
2022-09-22T10:00:45.028Z,894.38
2022-09-22T10:01:45.021Z,939.38
2022-09-22T10:02:44.997Z,922.50
2022-09-22T10:03:45.083Z,815.63
2022-09-22T10:04:45.000Z,855.00
2022-09-22T10:05:44.973Z,753.75
2022-09-22T10:06:44.949Z,669.38
2022-09-22T10:07:44.947Z,652.50
2022-09-22T10:08:44.950Z,810.00
2022-09-22T10:09:44.908Z,866.25
2022-09-22T10:10:44.899Z,815.63
2022-09-22T10:11:44.887Z,720.00
2022-09-22T10:12:44.900Z,601.88
2022-09-22T10:13:44.868Z,596.25
2022-09-22T10:14:44.844Z,596.25
2022-09-22T10:15:44.882Z,635.63
2022-09-22T10:16:44.822Z,686.25
2022-09-22T10:17:44.836Z,720.00
2022-09-22T10:18:44.819Z,759.38
2022-09-22T10:19:44.792Z,894.38
2022-09-22T10:20:44.777Z,1035.00
2022-09-22T10:21:44.804Z,1170.00
2022-09-22T10:22:44.783Z,1170.00
2022-09-22T10:23:44.746Z,1170.00
2022-09-22T10:24:44.729Z,1119.38
2022-09-22T10:25:44.735Z,939.38
2022-09-22T10:26:44.707Z,916.88
2022-09-22T10:27:44.691Z,967.50
2022-09-22T10:28:44.680Z,613.13
2022-09-22T10:29:44.689Z,646.88
2022-09-22T10:30:44.698Z,579.38
2022-09-22T10:31:44.642Z,652.50
2022-09-22T10:32:44.633Z,731.25
2022-09-22T10:33:44.623Z,770.63
2022-09-22T10:35:44.649Z,495.00
2022-09-22T10:36:44.606Z,511.88
2022-09-22T10:37:44.591Z,810.00
2022-09-22T10:38:44.557Z,697.50
2022-09-22T10:39:44.544Z,731.25
2022-09-22T10:40:44.665Z,691.88
2022-09-22T10:41:44.537Z,810.00
2022-09-22T10:42:44.527Z,607.50
2022-09-22T10:43:44.500Z,1012.50
2022-09-22T10:44:48.654Z,697.50
2022-09-22T10:45:44.505Z,866.25
2022-09-22T10:46:44.516Z,1063.13
2022-09-22T10:47:44.453Z,1046.25
2022-09-22T10:48:44.441Z,1012.50
2022-09-22T10:49:44.429Z,888.75
2022-09-22T10:50:44.418Z,725.63
2022-09-22T10:51:44.424Z,680.63
2022-09-22T10:52:44.401Z,1018.13
2022-09-22T10:53:44.380Z,1108.13
2022-09-22T10:54:44.376Z,1175.63
2022-09-22T10:55:44.382Z,933.75
2022-09-22T10:56:44.354Z,900.00
2022-09-22T10:57:44.336Z,1040.63
2022-09-22T10:58:44.344Z,697.50
2022-09-22T10:59:44.320Z,708.75
2022-09-22T11:00:44.329Z,675.00
2022-09-22T11:01:44.353Z,1051.88
2022-09-22T11:02:44.274Z,1012.50
2022-09-22T11:03:44.266Z,1046.25
2022-09-22T11:04:44.340Z,1085.63
2022-09-22T11:05:44.248Z,1130.63
2022-09-22T11:06:44.241Z,1096.88
2022-09-22T11:07:44.233Z,945.00
2022-09-22T11:08:44.212Z,916.88
2022-09-22T11:09:44.208Z,731.25
2022-09-22T11:10:44.218Z,427.50
2022-09-22T11:11:44.178Z,376.88
2022-09-22T11:12:44.173Z,365.63
2022-09-22T11:13:44.178Z,703.13
2022-09-22T11:14:44.143Z,646.88
2022-09-22T11:15:44.200Z,393.75
2022-09-22T11:16:44.123Z,534.38
2022-09-22T11:17:45.485Z,697.50
2022-09-22T11:18:44.106Z,990.00
2022-09-22T11:19:44.107Z,950.63
2022-09-22T11:20:44.072Z,483.75
2022-09-22T11:21:44.089Z,556.88
2022-09-22T11:22:44.050Z,517.50
2022-09-22T11:23:44.044Z,826.88
2022-09-22T11:24:44.059Z,416.25
2022-09-22T11:25:44.045Z,461.25
2022-09-22T11:26:43.999Z,416.25
2022-09-22T11:27:44.000Z,410.63
2022-09-22T11:28:43.979Z,427.50
2022-09-22T11:29:43.963Z,500.63
2022-09-22T11:30:44.033Z,416.25
2022-09-22T11:31:43.943Z,315.00
2022-09-22T11:32:43.934Z,292.50
2022-09-22T11:33:43.922Z,286.88
2022-09-22T11:34:43.904Z,286.88
2022-09-22T11:35:43.901Z,286.88
2022-09-22T11:36:47.934Z,286.88
2022-09-22T11:37:43.873Z,382.50
2022-09-22T11:38:43.856Z,253.13
2022-09-22T11:39:43.844Z,258.75
2022-09-22T11:40:43.977Z,241.88
2022-09-22T11:41:43.824Z,247.50
2022-09-22T11:42:43.819Z,230.63
2022-09-22T11:43:43.799Z,225.00
2022-09-22T11:44:43.789Z,225.00
2022-09-22T11:45:43.847Z,213.75
2022-09-22T11:46:43.783Z,202.50
2022-09-22T11:47:43.754Z,202.50
2022-09-22T11:48:43.728Z,202.50
2022-09-22T11:49:43.718Z,196.88
2022-09-22T11:50:43.703Z,191.25
2022-09-22T11:51:43.698Z,191.25
2022-09-22T11:52:43.733Z,191.25
2022-09-22T11:53:43.670Z,191.25
2022-09-22T11:54:43.663Z,270.00
2022-09-22T11:55:43.648Z,247.50
2022-09-22T11:56:43.629Z,191.25
2022-09-22T11:57:43.618Z,196.88
2022-09-22T11:58:43.631Z,185.63
2022-09-22T11:59:43.591Z,241.88
2022-09-22T12:00:43.584Z,180.00
2022-09-22T12:01:43.570Z,208.13
2022-09-22T12:02:43.638Z,191.25
2022-09-22T12:03:43.605Z,191.25
2022-09-22T12:04:43.548Z,180.00
2022-09-22T12:05:43.522Z,180.00
2022-09-22T12:06:45.540Z,174.38
2022-09-22T12:07:43.493Z,168.75
2022-09-22T12:08:43.543Z,168.75
2022-09-22T12:09:43.483Z,163.13
2022-09-22T12:10:43.454Z,157.50
2022-09-22T12:11:43.443Z,157.50
2022-09-22T12:12:43.436Z,168.75
2022-09-22T12:13:43.424Z,163.13
2022-09-22T12:14:43.422Z,157.50
2022-09-22T12:15:43.499Z,157.50
2022-09-22T12:16:43.376Z,191.25
2022-09-22T12:17:43.364Z,163.13
2022-09-22T12:18:43.354Z,168.75
2022-09-22T12:19:43.423Z,219.38
2022-09-22T12:20:43.329Z,219.38
2022-09-22T12:21:43.306Z,196.88
2022-09-22T12:22:43.313Z,202.50
2022-09-22T12:23:45.270Z,258.75
2022-09-22T12:24:43.271Z,343.13
2022-09-22T12:25:48.733Z,309.38
2022-09-22T12:26:43.238Z,343.13
2022-09-22T12:27:43.242Z,343.13
2022-09-22T12:28:43.236Z,309.38
2022-09-22T12:29:43.212Z,399.38
2022-09-22T12:30:43.243Z,416.25
2022-09-22T12:31:43.173Z,438.75
2022-09-22T12:32:43.178Z,433.13
2022-09-22T12:33:43.157Z,365.63
2022-09-22T12:34:43.136Z,382.50
2022-09-22T12:35:43.132Z,382.50
2022-09-22T12:36:43.098Z,275.63
2022-09-22T12:37:43.090Z,371.25
2022-09-22T12:38:43.075Z,365.63
2022-09-22T12:39:43.076Z,360.00
2022-09-22T12:40:43.083Z,371.25
2022-09-22T12:41:43.030Z,298.13
2022-09-22T12:42:43.022Z,320.63
2022-09-22T12:43:43.005Z,315.00
2022-09-22T12:44:43.022Z,320.63
2022-09-22T12:45:43.001Z,320.63
2022-09-22T12:46:42.966Z,303.75
2022-09-22T12:47:42.951Z,281.25
2022-09-22T12:48:42.941Z,286.88
2022-09-22T12:49:42.931Z,281.25
2022-09-22T12:50:44.949Z,286.88
2022-09-22T12:51:42.920Z,275.63
2022-09-22T12:52:42.888Z,270.00
2022-09-22T12:53:43.909Z,309.38
2022-09-22T12:54:42.853Z,264.38
2022-09-22T12:55:42.841Z,270.00
2022-09-22T12:56:42.824Z,264.38
2022-09-22T12:57:42.845Z,241.88
2022-09-22T12:58:42.800Z,1018.13
2022-09-22T12:59:42.785Z,1029.38
2022-09-22T13:00:42.793Z,258.75